createdAt,value
2018-05-27T00:00:15.370Z,24.46
2018-05-27T00:00:55.887Z,24.46
2018-05-27T00:01:36.395Z,24.52
2018-05-27T00:02:16.867Z,24.45
2018-05-27T00:02:57.380Z,24.35
2018-05-27T00:03:37.857Z,24.3
2018-05-27T00:04:18.361Z,24.35
2018-05-27T00:04:58.856Z,24.3
2018-05-27T00:05:39.332Z,24.31
2018-05-27T00:06:19.862Z,24.31
2018-05-27T00:07:00.440Z,24.28
2018-05-27T00:07:40.957Z,24.35
2018-05-27T00:08:21.471Z,24.43
2018-05-27T00:09:01.962Z,24.37
2018-05-27T00:09:42.464Z,24.27
2018-05-27T00:10:22.963Z,24.32
2018-05-27T00:11:03.451Z,24.39
2018-05-27T00:11:43.932Z,24.32
2018-05-27T00:12:24.506Z,24.3
2018-05-27T00:13:04.915Z,24.35
2018-05-27T00:13:45.434Z,24.35
2018-05-27T00:14:25.922Z,24.35
2018-05-27T00:15:06.470Z,24.31
2018-05-27T00:15:46.952Z,24.32
2018-05-27T00:16:27.465Z,24.3
2018-05-27T00:17:07.969Z,24.32
2018-05-27T00:17:48.452Z,24.25
2018-05-27T00:18:29.256Z,24.24
2018-05-27T00:19:09.717Z,24.22
2018-05-27T00:19:50.276Z,24.31
2018-05-27T00:20:30.801Z,24.24
2018-05-27T00:21:11.290Z,24.21
2018-05-27T00:21:51.782Z,24.27
2018-05-27T00:22:32.326Z,24.32
2018-05-27T00:23:12.780Z,24.31
2018-05-27T00:23:53.245Z,24.24
2018-05-27T00:24:33.789Z,24.28
2018-05-27T00:25:14.274Z,24.25
2018-05-27T00:25:54.799Z,24.25
2018-05-27T00:26:35.348Z,24.22
2018-05-27T00:27:15.786Z,24.3
2018-05-27T00:27:56.316Z,24.24
2018-05-27T00:28:36.803Z,24.25
2018-05-27T00:29:17.334Z,24.27
2018-05-27T00:29:57.788Z,24.32
2018-05-27T00:30:38.267Z,24.31
2018-05-27T00:31:18.783Z,24.25
2018-05-27T00:31:59.243Z,24.3
2018-05-27T00:32:39.777Z,24.22
2018-05-27T00:33:20.244Z,24.28
2018-05-27T00:34:00.741Z,24.24
2018-05-27T00:34:41.272Z,24.18
2018-05-27T00:35:21.746Z,24.13
2018-05-27T00:36:02.266Z,24.16
2018-05-27T00:36:42.772Z,24.21
2018-05-27T00:37:23.247Z,24.16
2018-05-27T00:38:03.733Z,24.21
2018-05-27T00:38:44.290Z,24.06
2018-05-27T00:39:24.778Z,24.09
2018-05-27T00:40:05.327Z,24.16
2018-05-27T00:40:45.818Z,24.12
2018-05-27T00:41:26.338Z,24.2
2018-05-27T00:42:06.815Z,24.24
2018-05-27T00:42:47.276Z,24.12
2018-05-27T00:43:27.823Z,24.13
2018-05-27T00:44:08.326Z,24.12
2018-05-27T00:44:48.785Z,24.09
2018-05-27T00:45:29.273Z,24.09
2018-05-27T00:46:09.785Z,24.09
2018-05-27T00:46:50.290Z,24.12
2018-05-27T00:47:30.764Z,24.16
2018-05-27T00:48:11.289Z,24.13
2018-05-27T00:48:51.739Z,24.12
2018-05-27T00:49:32.252Z,24.13
2018-05-27T00:50:12.737Z,24.13
2018-05-27T00:50:53.242Z,24.18
2018-05-27T00:51:33.738Z,24.13
2018-05-27T00:52:14.219Z,24.18
2018-05-27T00:52:54.747Z,24.09
2018-05-27T00:53:35.284Z,24.09
2018-05-27T00:54:15.774Z,24.09
2018-05-27T00:54:56.234Z,24.09
2018-05-27T00:55:36.748Z,24.03
2018-05-27T00:56:17.269Z,24.03
2018-05-27T00:56:57.784Z,24.06
2018-05-27T00:57:38.310Z,24.02
2018-05-27T00:58:18.756Z,24.02
2018-05-27T00:58:59.259Z,24.05
2018-05-27T00:59:39.712Z,24.15
2018-05-27T01:00:20.257Z,24.08
2018-05-27T01:01:00.690Z,24.06
2018-05-27T01:01:41.206Z,24.1
2018-05-27T01:02:21.705Z,24.1
2018-05-27T01:03:02.235Z,24.09
2018-05-27T01:03:42.741Z,24.08
2018-05-27T01:04:23.256Z,23.94
2018-05-27T01:05:03.754Z,24.05
2018-05-27T01:05:44.232Z,24.05
2018-05-27T01:06:24.741Z,24.03
2018-05-27T01:07:05.320Z,24.02
2018-05-27T01:07:45.743Z,24.09
2018-05-27T01:08:26.280Z,24.08
2018-05-27T01:09:06.735Z,24.08
2018-05-27T01:09:47.269Z,24
2018-05-27T01:10:27.831Z,23.95
2018-05-27T01:11:08.412Z,23.93
2018-05-27T01:11:48.956Z,24.02
2018-05-27T01:12:29.518Z,24
2018-05-27T01:13:10.050Z,23.95
2018-05-27T01:13:50.522Z,24.03
2018-05-27T01:14:31.078Z,24
2018-05-27T01:15:11.560Z,23.88
2018-05-27T01:15:52.014Z,24.02
2018-05-27T01:16:32.554Z,23.98
2018-05-27T01:17:13.063Z,23.95
2018-05-27T01:17:53.562Z,23.94
2018-05-27T01:18:34.075Z,23.88
2018-05-27T01:19:14.582Z,23.91
2018-05-27T01:19:55.023Z,23.79
2018-05-27T01:20:35.556Z,23.84
2018-05-27T01:21:16.064Z,23.84
2018-05-27T01:21:56.520Z,23.9
2018-05-27T01:22:37.070Z,23.95
2018-05-27T01:23:17.550Z,23.88
2018-05-27T01:23:58.060Z,23.91
2018-05-27T01:24:38.530Z,23.88
2018-05-27T01:25:19.014Z,23.91
2018-05-27T01:25:59.492Z,23.88
2018-05-27T01:26:39.972Z,23.84
2018-05-27T01:27:20.518Z,23.9
2018-05-27T01:28:01.093Z,23.91
2018-05-27T01:28:41.557Z,23.88
2018-05-27T01:29:22.115Z,23.84
2018-05-27T01:30:02.552Z,23.93
2018-05-27T01:30:43.185Z,23.9
2018-05-27T01:31:23.644Z,23.85
2018-05-27T01:32:04.101Z,23.95
2018-05-27T01:32:44.566Z,23.83
2018-05-27T01:33:25.116Z,23.85
2018-05-27T01:34:05.579Z,23.91
2018-05-27T01:34:46.096Z,23.8
2018-05-27T01:35:26.593Z,23.88
2018-05-27T01:36:07.049Z,23.85
2018-05-27T01:36:47.559Z,23.83
2018-05-27T01:37:28.086Z,23.9
2018-05-27T01:38:08.592Z,23.87
2018-05-27T01:38:49.095Z,23.85
2018-05-27T01:39:29.616Z,23.91
2018-05-27T01:40:10.119Z,23.87
2018-05-27T01:40:50.723Z,23.9
2018-05-27T01:41:31.258Z,23.94
2018-05-27T01:42:11.758Z,23.91
2018-05-27T01:42:52.225Z,23.85
2018-05-27T01:43:32.738Z,23.84
2018-05-27T01:44:13.251Z,23.8
2018-05-27T01:44:53.737Z,23.84
2018-05-27T01:45:34.244Z,23.87
2018-05-27T01:46:14.731Z,23.75
2018-05-27T01:46:55.220Z,23.72
2018-05-27T01:47:35.737Z,23.75
2018-05-27T01:48:16.250Z,23.76
2018-05-27T01:48:56.714Z,23.75
2018-05-27T01:49:37.219Z,23.69
2018-05-27T01:50:17.723Z,23.76
2018-05-27T01:50:58.210Z,23.7
2018-05-27T01:51:38.690Z,23.72
2018-05-27T01:52:19.203Z,23.68
2018-05-27T01:52:59.718Z,23.7
2018-05-27T01:53:40.226Z,23.72
2018-05-27T01:54:20.728Z,23.5
2018-05-27T01:55:01.190Z,23.5
2018-05-27T01:55:41.727Z,23.57
2018-05-27T01:56:22.193Z,23.55
2018-05-27T01:57:02.682Z,23.57
2018-05-27T01:57:43.189Z,23.58
2018-05-27T01:58:23.687Z,23.58
2018-05-27T01:59:04.222Z,23.63
2018-05-27T01:59:44.752Z,23.58
2018-05-27T02:00:25.279Z,23.51
2018-05-27T02:01:05.738Z,23.58
2018-05-27T02:01:46.270Z,23.57
2018-05-27T02:02:26.769Z,23.55
2018-05-27T02:03:07.288Z,23.73
2018-05-27T02:03:47.788Z,23.54
2018-05-27T02:04:28.295Z,23.54
2018-05-27T02:05:08.775Z,23.68
2018-05-27T02:05:49.240Z,23.75
2018-05-27T02:06:29.740Z,23.73
2018-05-27T02:07:10.307Z,23.6
2018-05-27T02:07:50.728Z,23.68
2018-05-27T02:08:31.205Z,23.66
2018-05-27T02:09:11.727Z,23.73
2018-05-27T02:09:52.264Z,23.75
2018-05-27T02:10:32.853Z,23.68
2018-05-27T02:11:13.341Z,23.66
2018-05-27T02:11:53.818Z,23.7
2018-05-27T02:12:34.345Z,23.78
2018-05-27T02:13:14.801Z,23.69
2018-05-27T02:13:55.335Z,23.75
2018-05-27T02:14:35.853Z,23.72
2018-05-27T02:15:16.369Z,23.73
2018-05-27T02:15:56.903Z,23.73
2018-05-27T02:16:37.436Z,23.65
2018-05-27T02:17:17.956Z,23.73
2018-05-27T02:17:58.477Z,23.73
2018-05-27T02:18:39.020Z,23.76
2018-05-27T02:19:19.543Z,23.7
2018-05-27T02:20:00.208Z,23.68
2018-05-27T02:20:40.726Z,23.69
2018-05-27T02:21:21.265Z,23.69
2018-05-27T02:22:01.785Z,23.75
2018-05-27T02:22:42.336Z,23.72
2018-05-27T02:23:22.859Z,23.72
2018-05-27T02:24:03.400Z,23.69
2018-05-27T02:24:43.919Z,23.75
2018-05-27T02:25:24.448Z,23.73
2018-05-27T02:26:04.975Z,23.7
2018-05-27T02:26:45.485Z,23.75
2018-05-27T02:27:25.997Z,23.73
2018-05-27T02:28:06.526Z,23.75
2018-05-27T02:28:47.029Z,23.69
2018-05-27T02:29:27.557Z,23.63
2018-05-27T02:30:08.085Z,23.72
2018-05-27T02:30:48.602Z,23.66
2018-05-27T02:31:29.128Z,23.63
2018-05-27T02:32:09.659Z,23.65
2018-05-27T02:32:50.179Z,23.63
2018-05-27T02:33:30.710Z,23.69
2018-05-27T02:34:11.229Z,23.48
2018-05-27T02:34:51.762Z,23.55
2018-05-27T02:35:32.289Z,23.54
2018-05-27T02:36:12.825Z,23.57
2018-05-27T02:36:53.334Z,23.6
2018-05-27T02:37:33.858Z,23.6
2018-05-27T02:38:14.373Z,23.63
2018-05-27T02:38:54.898Z,23.57
2018-05-27T02:39:35.425Z,23.57
2018-05-27T02:40:16.010Z,23.69
2018-05-27T02:40:56.589Z,23.68
2018-05-27T02:41:37.119Z,23.6
2018-05-27T02:42:17.664Z,23.54
2018-05-27T02:42:58.155Z,23.65
2018-05-27T02:43:38.690Z,23.68
2018-05-27T02:44:19.287Z,23.65
2018-05-27T02:44:59.810Z,23.7
2018-05-27T02:45:40.338Z,23.75
2018-05-27T02:46:20.862Z,23.6
2018-05-27T02:47:01.385Z,23.5
2018-05-27T02:47:41.899Z,23.57
2018-05-27T02:48:22.432Z,23.6
2018-05-27T02:49:02.959Z,23.72
2018-05-27T02:49:43.468Z,23.66
2018-05-27T02:50:24.009Z,23.57
2018-05-27T02:51:04.520Z,23.58
2018-05-27T02:51:45.102Z,23.55
2018-05-27T02:52:25.603Z,23.57
2018-05-27T02:53:06.127Z,23.61
2018-05-27T02:53:46.650Z,23.61
2018-05-27T02:54:27.178Z,23.51
2018-05-27T02:55:07.691Z,23.73
2018-05-27T02:55:48.249Z,23.54
2018-05-27T02:56:28.754Z,23.63
2018-05-27T02:57:09.271Z,23.57
2018-05-27T02:57:49.783Z,23.58
2018-05-27T02:58:30.316Z,23.61
2018-05-27T02:59:10.839Z,23.55
2018-05-27T02:59:51.367Z,23.6
2018-05-27T03:00:31.888Z,23.61
2018-05-27T03:01:12.406Z,23.63
2018-05-27T03:01:52.925Z,23.58
2018-05-27T03:02:33.446Z,23.65
2018-05-27T03:03:13.970Z,23.51
2018-05-27T03:03:54.496Z,23.5
2018-05-27T03:04:35.106Z,23.57
2018-05-27T03:05:15.651Z,23.53
2018-05-27T03:05:56.181Z,23.48
2018-05-27T03:06:36.693Z,23.51
2018-05-27T03:07:17.213Z,23.63
2018-05-27T03:07:57.731Z,23.55
2018-05-27T03:08:38.249Z,23.58
2018-05-27T03:09:18.789Z,23.54
2018-05-27T03:09:59.312Z,23.57
2018-05-27T03:10:39.827Z,23.42
2018-05-27T03:11:20.345Z,23.4
2018-05-27T03:12:00.853Z,23.55
2018-05-27T03:12:41.376Z,23.42
2018-05-27T03:13:21.882Z,23.43
2018-05-27T03:14:02.339Z,23.42
2018-05-27T03:14:42.837Z,23.4
2018-05-27T03:15:23.339Z,23.48
2018-05-27T03:16:03.865Z,23.42
2018-05-27T03:16:44.371Z,23.4
2018-05-27T03:17:24.861Z,23.39
2018-05-27T03:18:05.361Z,23.39
2018-05-27T03:18:45.876Z,23.4
2018-05-27T03:19:26.409Z,23.47
2018-05-27T03:20:06.923Z,23.5
2018-05-27T03:20:47.442Z,23.46
2018-05-27T03:21:27.969Z,23.43
2018-05-27T03:22:08.487Z,23.46
2018-05-27T03:22:49.019Z,23.46
2018-05-27T03:23:29.543Z,23.46
2018-05-27T03:24:10.085Z,23.38
2018-05-27T03:24:50.604Z,23.4
2018-05-27T03:25:31.127Z,23.48
2018-05-27T03:26:11.648Z,23.54
2018-05-27T03:26:52.174Z,23.46
2018-05-27T03:27:32.684Z,23.42
2018-05-27T03:28:13.231Z,23.4
2018-05-27T03:28:53.714Z,23.53
2018-05-27T03:29:34.234Z,23.42
2018-05-27T03:30:14.788Z,23.4
2018-05-27T03:30:55.329Z,23.48
2018-05-27T03:31:35.859Z,23.51
2018-05-27T03:32:16.392Z,23.48
2018-05-27T03:32:56.914Z,23.46
2018-05-27T03:33:37.423Z,23.42
2018-05-27T03:34:17.933Z,23.43
2018-05-27T03:34:58.456Z,23.51
2018-05-27T03:35:39.012Z,23.48
2018-05-27T03:36:19.706Z,23.47
2018-05-27T03:37:00.200Z,23.43
2018-05-27T03:37:40.713Z,23.53
2018-05-27T03:38:21.262Z,23.46
2018-05-27T03:39:01.785Z,23.47
2018-05-27T03:39:42.313Z,23.39
2018-05-27T03:40:22.836Z,23.43
2018-05-27T03:41:03.378Z,23.46
2018-05-27T03:41:43.889Z,23.46
2018-05-27T03:42:24.387Z,23.39
2018-05-27T03:43:04.894Z,23.46
2018-05-27T03:43:45.409Z,23.55
2018-05-27T03:44:25.929Z,23.57
2018-05-27T03:45:06.463Z,23.55
2018-05-27T03:45:46.987Z,23.47
2018-05-27T03:46:27.511Z,23.42
2018-05-27T03:47:08.028Z,23.55
2018-05-27T03:47:48.548Z,23.5
2018-05-27T03:48:29.079Z,23.57
2018-05-27T03:49:09.592Z,23.5
2018-05-27T03:49:50.125Z,23.43
2018-05-27T03:50:30.644Z,23.5
2018-05-27T03:51:11.179Z,23.43
2018-05-27T03:51:51.702Z,23.42
2018-05-27T03:52:32.226Z,23.4
2018-05-27T03:53:12.746Z,23.46
2018-05-27T03:53:53.243Z,23.5
2018-05-27T03:54:33.761Z,23.63
2018-05-27T03:55:14.258Z,23.63
2018-05-27T03:55:54.980Z,23.65
2018-05-27T03:56:35.523Z,23.57
2018-05-27T03:57:16.020Z,23.65
2018-05-27T03:57:56.524Z,23.47
2018-05-27T03:58:36.997Z,23.46
2018-05-27T03:59:17.540Z,23.4
2018-05-27T03:59:58.011Z,23.57
2018-05-27T04:00:38.559Z,23.55
2018-05-27T04:01:19.012Z,23.57
2018-05-27T04:01:59.546Z,23.55
2018-05-27T04:02:40.073Z,23.6
2018-05-27T04:03:20.588Z,23.61
2018-05-27T04:04:01.106Z,23.63
2018-05-27T04:04:41.614Z,23.61
2018-05-27T04:05:22.137Z,23.7
2018-05-27T04:06:02.663Z,23.7
2018-05-27T04:06:43.172Z,23.7
2018-05-27T04:07:23.712Z,23.69
2018-05-27T04:08:04.222Z,23.69
2018-05-27T04:08:44.754Z,23.57
2018-05-27T04:09:25.277Z,23.54
2018-05-27T04:10:05.808Z,23.58
2018-05-27T04:10:46.330Z,23.58
2018-05-27T04:11:26.862Z,23.63
2018-05-27T04:12:07.471Z,23.7
2018-05-27T04:12:48.025Z,23.75
2018-05-27T04:13:28.534Z,23.7
2018-05-27T04:14:09.038Z,23.68
2018-05-27T04:14:49.578Z,23.7
2018-05-27T04:15:30.123Z,23.75
2018-05-27T04:16:10.640Z,23.7
2018-05-27T04:16:51.161Z,23.72
2018-05-27T04:17:31.675Z,23.8
2018-05-27T04:18:12.188Z,23.75
2018-05-27T04:18:52.717Z,23.69
2018-05-27T04:19:33.247Z,23.7
2018-05-27T04:20:13.780Z,23.72
2018-05-27T04:20:54.286Z,23.68
2018-05-27T04:21:34.798Z,23.78
2018-05-27T04:22:15.334Z,23.72
2018-05-27T04:22:55.835Z,23.85
2018-05-27T04:23:36.347Z,23.8
2018-05-27T04:24:16.865Z,23.73
2018-05-27T04:24:57.382Z,23.68
2018-05-27T04:25:37.888Z,23.72
2018-05-27T04:26:18.426Z,23.75
2018-05-27T04:26:58.945Z,23.7
2018-05-27T04:27:39.465Z,23.72
2018-05-27T04:28:20.057Z,23.7
2018-05-27T04:29:00.494Z,23.76
2018-05-27T04:29:41.140Z,23.68
2018-05-27T04:30:21.663Z,23.72
2018-05-27T04:31:02.170Z,23.72
2018-05-27T04:31:42.688Z,23.68
2018-05-27T04:32:23.228Z,23.72
2018-05-27T04:33:03.752Z,23.73
2018-05-27T04:33:44.277Z,23.75
2018-05-27T04:34:24.799Z,23.76
2018-05-27T04:35:05.324Z,23.8
2018-05-27T04:35:45.923Z,23.84
2018-05-27T04:36:26.424Z,23.8
2018-05-27T04:37:06.930Z,23.79
2018-05-27T04:37:47.416Z,23.9
2018-05-27T04:38:27.945Z,23.85
2018-05-27T04:39:08.461Z,23.88
2018-05-27T04:39:48.989Z,23.93
2018-05-27T04:40:29.517Z,23.94
2018-05-27T04:41:10.042Z,23.9
2018-05-27T04:41:50.561Z,23.91
2018-05-27T04:42:31.082Z,24.03
2018-05-27T04:43:11.611Z,23.84
2018-05-27T04:43:52.123Z,23.91
2018-05-27T04:44:32.643Z,23.88
2018-05-27T04:45:13.151Z,23.98
2018-05-27T04:45:53.665Z,23.97
2018-05-27T04:46:34.200Z,24.05
2018-05-27T04:47:14.713Z,24.09
2018-05-27T04:47:55.331Z,24.1
2018-05-27T04:48:35.826Z,24.13
2018-05-27T04:49:16.340Z,24.15
2018-05-27T04:49:56.853Z,24.3
2018-05-27T04:50:37.383Z,24.3
2018-05-27T04:51:17.887Z,24.39
2018-05-27T04:51:58.404Z,24.28
2018-05-27T04:52:38.918Z,24.37
2018-05-27T04:53:19.464Z,24.39
2018-05-27T04:53:59.982Z,24.37
2018-05-27T04:54:40.506Z,24.45
2018-05-27T04:55:21.028Z,24.39
2018-05-27T04:56:01.556Z,24.4
2018-05-27T04:56:42.073Z,24.42
2018-05-27T04:57:22.593Z,24.37
2018-05-27T04:58:03.100Z,24.45
2018-05-27T04:58:43.619Z,24.5
2018-05-27T04:59:24.146Z,24.49
2018-05-27T05:00:04.660Z,24.52
2018-05-27T05:00:45.167Z,24.47
2018-05-27T05:01:25.701Z,24.47
2018-05-27T05:02:06.235Z,24.47
2018-05-27T05:02:46.752Z,24.49
2018-05-27T05:03:27.270Z,24.5
2018-05-27T05:04:07.786Z,24.47
2018-05-27T05:04:48.294Z,24.68
2018-05-27T05:05:28.812Z,24.99
2018-05-27T05:06:09.361Z,25.21
2018-05-27T05:06:49.875Z,25.32
2018-05-27T05:07:30.394Z,25.13
2018-05-27T05:08:10.917Z,24.99
2018-05-27T05:08:51.439Z,24.9
2018-05-27T05:09:32.016Z,24.96
2018-05-27T05:10:12.454Z,24.9
2018-05-27T05:10:52.957Z,24.88
2018-05-27T05:11:33.448Z,24.84
2018-05-27T05:12:13.941Z,24.85
2018-05-27T05:12:54.438Z,24.83
2018-05-27T05:13:34.937Z,24.85
2018-05-27T05:14:15.521Z,24.84
2018-05-27T05:14:56.034Z,24.96
2018-05-27T05:15:36.538Z,24.93
2018-05-27T05:16:17.011Z,24.88
2018-05-27T05:16:57.530Z,24.87
2018-05-27T05:17:38.000Z,24.83
2018-05-27T05:18:18.536Z,24.88
2018-05-27T05:18:58.995Z,24.93
2018-05-27T05:19:39.519Z,24.9
2018-05-27T05:20:20.011Z,24.98
2018-05-27T05:21:00.524Z,24.98
2018-05-27T05:21:41.040Z,24.88
2018-05-27T05:22:21.572Z,24.93
2018-05-27T05:23:02.107Z,24.88
2018-05-27T05:23:42.627Z,24.84
2018-05-27T05:24:23.222Z,24.91
2018-05-27T05:25:03.729Z,24.93
2018-05-27T05:25:44.238Z,24.78
2018-05-27T05:26:24.761Z,24.87
2018-05-27T05:27:05.295Z,24.93
2018-05-27T05:27:45.885Z,24.9
2018-05-27T05:28:26.363Z,24.83
2018-05-27T05:29:06.895Z,24.9
2018-05-27T05:29:47.421Z,24.9
2018-05-27T05:30:27.952Z,24.83
2018-05-27T05:31:08.484Z,24.87
2018-05-27T05:31:49.114Z,24.9
2018-05-27T05:32:29.622Z,24.85
2018-05-27T05:33:10.128Z,24.95
2018-05-27T05:33:50.556Z,24.99
2018-05-27T05:34:31.007Z,24.93
2018-05-27T05:35:11.523Z,24.95
2018-05-27T05:35:52.065Z,25
2018-05-27T05:36:32.568Z,24.9
2018-05-27T05:37:13.096Z,25
2018-05-27T05:37:53.629Z,25.02
2018-05-27T05:38:34.164Z,25.08
2018-05-27T05:39:14.714Z,25.1
2018-05-27T05:39:55.265Z,25.13
2018-05-27T05:40:35.787Z,25.1
2018-05-27T05:41:16.335Z,25.13
2018-05-27T05:41:56.814Z,25.14
2018-05-27T05:42:37.338Z,25.13
2018-05-27T05:43:17.816Z,25.3
2018-05-27T05:43:58.315Z,25.2
2018-05-27T05:44:38.821Z,25.2
2018-05-27T05:45:19.359Z,25.33
2018-05-27T05:45:59.831Z,25.36
2018-05-27T05:46:40.343Z,25.32
2018-05-27T05:47:20.829Z,25.35
2018-05-27T05:48:01.355Z,25.39
2018-05-27T05:48:41.834Z,25.32
2018-05-27T05:49:22.363Z,25.39
2018-05-27T05:50:02.852Z,25.4
2018-05-27T05:50:43.309Z,25.39
2018-05-27T05:51:23.834Z,25.45
2018-05-27T05:52:04.342Z,25.6
2018-05-27T05:52:44.818Z,25.82
2018-05-27T05:53:25.276Z,25.99
2018-05-27T05:54:05.772Z,26.07
2018-05-27T05:54:46.272Z,26.35
2018-05-27T05:55:26.785Z,26.39
2018-05-27T05:56:07.311Z,26.51
2018-05-27T05:56:47.821Z,26.69
2018-05-27T05:57:28.333Z,26.72
2018-05-27T05:58:08.859Z,26.89
2018-05-27T05:58:49.363Z,26.92
2018-05-27T05:59:29.831Z,26.84
2018-05-27T06:00:10.365Z,26.95
2018-05-27T06:00:50.863Z,27.04
2018-05-27T06:01:31.378Z,27.02
2018-05-27T06:02:11.895Z,27.17
2018-05-27T06:02:52.445Z,27.34
2018-05-27T06:03:32.897Z,27.4
2018-05-27T06:04:13.413Z,27.59
2018-05-27T06:04:53.879Z,27.6
2018-05-27T06:05:34.404Z,27.59
2018-05-27T06:06:14.857Z,27.65
2018-05-27T06:06:55.402Z,27.6
2018-05-27T06:07:35.908Z,27.67
2018-05-27T06:08:16.521Z,27.74
2018-05-27T06:08:57.065Z,27.65
2018-05-27T06:09:37.575Z,27.7
2018-05-27T06:10:18.469Z,27.7
2018-05-27T06:10:58.990Z,27.84
2018-05-27T06:11:39.501Z,27.79
2018-05-27T06:12:19.965Z,27.79
2018-05-27T06:13:00.511Z,27.85
2018-05-27T06:13:41.068Z,27.82
2018-05-27T06:14:21.785Z,27.88
2018-05-27T06:15:02.425Z,27.77
2018-05-27T06:15:43.401Z,27.79
2018-05-27T06:16:23.855Z,27.81
2018-05-27T06:17:04.341Z,27.7
2018-05-27T06:17:44.880Z,27.74
2018-05-27T06:18:25.437Z,27.74
2018-05-27T06:19:05.848Z,27.77
2018-05-27T06:19:46.361Z,27.78
2018-05-27T06:20:26.921Z,27.75
2018-05-27T06:21:07.301Z,27.82
2018-05-27T06:21:47.811Z,27.88
2018-05-27T06:22:28.386Z,27.96
2018-05-27T06:23:08.857Z,27.85
2018-05-27T06:23:49.384Z,27.88
2018-05-27T06:24:29.977Z,27.78
2018-05-27T06:25:10.425Z,27.82
2018-05-27T06:25:50.869Z,27.9
2018-05-27T06:26:31.384Z,27.9
2018-05-27T06:27:11.859Z,27.85
2018-05-27T06:27:52.400Z,27.84
2018-05-27T06:28:32.940Z,28.04
2018-05-27T06:29:13.491Z,28.11
2018-05-27T06:29:53.950Z,28.11
2018-05-27T06:30:34.596Z,28.18
2018-05-27T06:31:15.164Z,28.21
2018-05-27T06:31:55.621Z,28.15
2018-05-27T06:32:36.133Z,28.15
2018-05-27T06:33:16.754Z,28.11
2018-05-27T06:33:57.176Z,28.14
2018-05-27T06:34:37.660Z,28.06
2018-05-27T06:35:18.240Z,27.88
2018-05-27T06:35:58.719Z,27.94
2018-05-27T06:36:39.359Z,27.82
2018-05-27T06:37:19.844Z,27.94
2018-05-27T06:38:00.732Z,28.06
2018-05-27T06:38:41.265Z,28.25
2018-05-27T06:39:21.785Z,28.19
2018-05-27T06:40:02.247Z,28.22
2018-05-27T06:40:42.722Z,28.3
2018-05-27T06:41:23.409Z,28.31
2018-05-27T06:42:04.129Z,28.34
2018-05-27T06:42:44.824Z,28.31
2018-05-27T06:43:25.610Z,28.4
2018-05-27T06:44:06.280Z,28.56
2018-05-27T06:44:47.008Z,28.54
2018-05-27T06:45:27.574Z,28.56
2018-05-27T06:46:08.126Z,28.56
2018-05-27T06:46:49.487Z,28.59
2018-05-27T06:47:30.268Z,28.58
2018-05-27T06:48:12.921Z,28.56
2018-05-27T06:48:53.026Z,28.51
2018-05-27T06:49:33.633Z,28.58
2018-05-27T06:50:14.418Z,28.66
2018-05-27T06:50:55.888Z,28.62
2018-05-27T06:51:38.854Z,28.66
2018-05-27T06:52:20.208Z,28.64
2018-05-27T06:53:00.764Z,28.55
2018-05-27T06:53:43.944Z,28.66
2018-05-27T06:54:24.346Z,28.73
2018-05-27T06:55:04.862Z,28.86
2018-05-27T06:55:45.488Z,28.78
2018-05-27T06:56:26.321Z,28.78
2018-05-27T06:57:06.764Z,28.86
2018-05-27T06:57:47.255Z,28.7
2018-05-27T06:58:27.783Z,28.74
2018-05-27T06:59:08.422Z,28.73
2018-05-27T06:59:49.050Z,28.71
2018-05-27T07:00:30.446Z,28.76
2018-05-27T07:01:11.061Z,28.83
2018-05-27T07:01:51.848Z,28.9
2018-05-27T07:02:34.024Z,28.92
2018-05-27T07:03:15.156Z,28.88
2018-05-27T07:03:55.644Z,28.86
2018-05-27T07:04:36.475Z,28.86
2018-05-27T07:05:16.966Z,28.85
2018-05-27T07:05:57.713Z,28.77
2018-05-27T07:06:38.460Z,28.76
2018-05-27T07:07:20.943Z,28.88
2018-05-27T07:08:01.424Z,28.86
2018-05-27T07:08:44.248Z,28.9
2018-05-27T07:09:25.170Z,28.86
2018-05-27T07:10:06.120Z,29.05
2018-05-27T07:10:46.380Z,29.11
2018-05-27T07:11:26.883Z,28.86
2018-05-27T07:12:07.423Z,29
2018-05-27T07:12:47.968Z,28.9
2018-05-27T07:13:28.792Z,28.86
2018-05-27T07:14:09.316Z,28.86
2018-05-27T07:14:53.493Z,28.81
2018-05-27T07:15:34.261Z,28.76
2018-05-27T07:21:08.552Z,28.92
2018-05-27T07:21:49.336Z,29.08
2018-05-27T07:22:30.173Z,29.08
2018-05-27T07:23:11.692Z,28.96
2018-05-27T07:23:52.757Z,28.89
2018-05-27T07:24:33.350Z,28.96
2018-05-27T07:25:15.249Z,28.96
2018-05-27T07:25:55.824Z,29
2018-05-27T07:26:36.794Z,28.96
2018-05-27T07:27:17.347Z,28.98
2018-05-27T07:27:58.423Z,29.08
2018-05-27T07:28:39.173Z,29.06
2018-05-27T07:29:19.661Z,29.12
2018-05-27T07:30:00.134Z,29.14
2018-05-27T07:30:40.659Z,29.11
2018-05-27T07:31:21.173Z,29.24
2018-05-27T07:32:01.686Z,29.41
2018-05-27T07:32:42.205Z,29.63
2018-05-27T07:33:22.776Z,29.79
2018-05-27T07:34:03.252Z,29.92
2018-05-27T07:34:44.052Z,30.05
2018-05-27T07:35:26.223Z,30.19
2018-05-27T07:36:07.430Z,30.42
2018-05-27T07:36:47.973Z,30.62
2018-05-27T07:37:28.561Z,30.7
2018-05-27T07:38:10.517Z,30.75
2018-05-27T07:38:51.093Z,30.84
2018-05-27T07:39:31.582Z,30.86
2018-05-27T07:40:12.670Z,30.95
2018-05-27T07:40:55.039Z,30.97
2018-05-27T07:41:35.558Z,30.77
2018-05-27T07:42:25.766Z,30.75
2018-05-27T07:43:08.042Z,30.62
2018-05-27T07:43:50.094Z,30.6
2018-05-27T07:46:07.130Z,30.19
2018-05-27T07:47:01.300Z,30.24
2018-05-27T07:48:35.977Z,30.16
2018-05-27T07:49:16.578Z,30.15
2018-05-27T07:50:00.609Z,30.16
2018-05-27T07:50:43.874Z,30.08
2018-05-27T07:51:24.651Z,30.08
2018-05-27T07:52:05.257Z,30.01
2018-05-27T07:52:48.324Z,30.02
2018-05-27T07:53:29.553Z,30.08
2018-05-27T07:54:10.134Z,29.97
2018-05-27T07:54:50.704Z,29.95
2018-05-27T07:55:31.250Z,30.02
2018-05-27T07:56:12.647Z,30.01
2018-05-27T07:57:51.110Z,30.01
2018-05-27T07:58:32.026Z,29.98
2018-05-27T07:59:13.009Z,30.05
2018-05-27T07:59:54.477Z,30.07
2018-05-27T08:00:34.998Z,30.27
2018-05-27T08:01:15.635Z,30.27
2018-05-27T08:01:56.698Z,30.34
2018-05-27T08:02:37.783Z,30.35
2018-05-27T08:03:18.427Z,30.39
2018-05-27T08:03:58.898Z,30.31
2018-05-27T08:05:04.786Z,30.24
2018-05-27T08:05:45.719Z,30.22
2018-05-27T08:06:26.191Z,30.16
2018-05-27T08:07:06.760Z,30.19
2018-05-27T08:07:47.229Z,30.26
2018-05-27T08:08:27.764Z,30.23
2018-05-27T08:09:08.246Z,30.23
2018-05-27T08:11:01.453Z,30.29
2018-05-27T08:11:42.708Z,30.22
2018-05-27T08:12:24.343Z,30.31
2018-05-27T08:13:05.019Z,30.29
2018-05-27T08:13:45.883Z,30.32
2018-05-27T08:14:26.535Z,30.42
2018-05-27T08:15:07.521Z,30.49
2018-05-27T08:15:49.089Z,30.51
2018-05-27T08:16:30.212Z,30.51
2018-05-27T08:17:10.873Z,30.58
2018-05-27T08:17:56.024Z,30.6
2018-05-27T08:18:46.036Z,30.65
2018-05-27T08:19:26.473Z,30.62
2018-05-27T08:20:07.050Z,30.7
2018-05-27T08:20:47.485Z,30.7
2018-05-27T08:21:27.978Z,30.65
2018-05-27T08:22:09.324Z,30.72
2018-05-27T08:22:49.775Z,30.76
2018-05-27T08:23:30.286Z,30.62
2018-05-27T08:24:10.807Z,30.64
2018-05-27T08:24:51.397Z,30.54
2018-05-27T08:25:31.776Z,30.53
2018-05-27T08:26:12.263Z,30.67
2018-05-27T08:26:52.779Z,30.7
2018-05-27T08:27:33.246Z,30.62
2018-05-27T08:28:13.771Z,30.67
2018-05-27T08:28:54.289Z,30.6
2018-05-27T08:29:34.795Z,30.75
2018-05-27T08:30:15.364Z,30.72
2018-05-27T08:30:55.838Z,30.72
2018-05-27T08:31:36.335Z,30.69
2018-05-27T08:32:16.840Z,30.55
2018-05-27T08:32:57.376Z,30.53
2018-05-27T08:33:37.845Z,30.57
2018-05-27T08:34:18.390Z,30.61
2018-05-27T08:34:59.078Z,30.46
2018-05-27T08:35:39.543Z,30.47
2018-05-27T08:36:20.047Z,30.55
2018-05-27T08:37:00.514Z,30.38
2018-05-27T08:37:41.022Z,30.38
2018-05-27T08:38:21.573Z,30.43
2018-05-27T08:39:02.198Z,30.51
2018-05-27T08:39:42.684Z,30.35
2018-05-27T08:40:23.450Z,30.42
2018-05-27T08:41:03.879Z,30.57
2018-05-27T08:41:44.439Z,30.42
2018-05-27T08:42:24.981Z,30.38
2018-05-27T08:43:05.502Z,30.51
2018-05-27T08:43:46.009Z,30.35
2018-05-27T08:44:26.508Z,30.51
2018-05-27T08:45:07.003Z,30.24
2018-05-27T08:45:47.520Z,30.46
2018-05-27T08:46:27.996Z,30.37
2018-05-27T08:47:08.548Z,30.45
2018-05-27T08:47:49.032Z,30.35
2018-05-27T08:48:29.490Z,30.39
2018-05-27T08:49:10.008Z,30.42
2018-05-27T08:49:50.461Z,30.46
2018-05-27T08:50:30.952Z,30.42
2018-05-27T08:51:11.477Z,30.6
2018-05-27T08:51:52.046Z,30.73
2018-05-27T08:52:32.468Z,30.64
2018-05-27T08:53:13.197Z,30.65
2018-05-27T08:53:53.537Z,30.7
2018-05-27T08:54:34.679Z,30.62
2018-05-27T08:55:14.691Z,30.7
2018-05-27T08:55:55.204Z,30.61